createdAt,value
2023-01-30T00:01:32.632Z,51.34
2023-01-30T00:04:00.691Z,51.43
2023-01-30T00:06:29.165Z,51.29
2023-01-30T00:08:57.171Z,51.25
2023-01-30T00:11:25.402Z,51.24
2023-01-30T00:13:54.483Z,51.29
2023-01-30T00:16:22.750Z,51.36
2023-01-30T00:18:52.210Z,51.25
2023-01-30T00:21:20.478Z,51.29
2023-01-30T00:23:56.114Z,51.40
2023-01-30T00:26:24.254Z,51.41
2023-01-30T00:28:53.023Z,51.49
2023-01-30T00:31:23.473Z,51.43
2023-01-30T00:33:51.872Z,51.49
2023-01-30T00:36:19.968Z,51.62
2023-01-30T00:38:48.319Z,51.65
2023-01-30T00:41:19.019Z,51.67
2023-01-30T00:44:22.842Z,51.56
2023-01-30T00:47:05.958Z,51.61
2023-01-30T00:49:36.393Z,51.63
2023-01-30T00:52:04.919Z,51.76
2023-01-30T00:54:33.828Z,51.76
2023-01-30T00:57:02.504Z,51.78
2023-01-30T00:59:30.608Z,51.82
2023-01-30T01:01:58.868Z,51.93
2023-01-30T01:04:26.992Z,51.85
2023-01-30T01:06:55.418Z,51.78
2023-01-30T01:09:23.558Z,51.74
2023-01-30T01:11:51.979Z,51.80
2023-01-30T01:14:21.130Z,51.88
2023-01-30T01:16:49.857Z,51.84
2023-01-30T01:19:18.168Z,51.94
2023-01-30T01:21:46.589Z,52.11
2023-01-30T01:24:15.401Z,52.19
2023-01-30T01:26:43.734Z,52.28
2023-01-30T01:29:16.009Z,52.38
2023-01-30T01:31:44.721Z,52.40
2023-01-30T01:34:13.112Z,52.36
2023-01-30T01:36:53.362Z,52.69
2023-01-30T01:39:22.863Z,52.83
2023-01-30T01:41:52.168Z,52.87
2023-01-30T01:44:20.678Z,52.92
2023-01-30T01:46:50.239Z,52.92
2023-01-30T01:49:23.562Z,53.11
2023-01-30T01:52:08.848Z,52.96
2023-01-30T01:54:47.420Z,53.10
2023-01-30T01:57:31.207Z,53.25
2023-01-30T02:00:10.101Z,53.30
2023-01-30T02:02:42.221Z,53.35
2023-01-30T02:05:11.499Z,53.18
2023-01-30T02:07:48.317Z,53.14
2023-01-30T02:10:21.916Z,53.28
2023-01-30T02:12:50.801Z,53.21
2023-01-30T02:15:19.656Z,53.24
2023-01-30T02:17:48.657Z,53.13
2023-01-30T02:20:32.492Z,53.28
2023-01-30T02:23:38.516Z,53.24
2023-01-30T02:26:45.563Z,53.14
2023-01-30T02:29:26.401Z,53.17
2023-01-30T02:32:00.435Z,53.10
2023-01-30T02:34:50.723Z,53.08
2023-01-30T02:37:41.685Z,53.16
2023-01-30T02:40:23.553Z,53.07
2023-01-30T02:43:12.950Z,53.00
2023-01-30T02:46:11.870Z,53.07
2023-01-30T02:49:09.251Z,53.10
2023-01-30T02:51:40.363Z,53.18
2023-01-30T02:54:10.513Z,53.10
2023-01-30T02:56:53.139Z,53.14
2023-01-30T02:59:36.341Z,53.30
2023-01-30T03:02:23.916Z,53.21
2023-01-30T03:05:12.051Z,53.22
2023-01-30T03:08:08.509Z,53.29
2023-01-30T03:10:59.114Z,53.27
2023-01-30T03:13:55.711Z,53.25
2023-01-30T03:16:27.414Z,53.28
2023-01-30T03:18:56.333Z,53.38
2023-01-30T03:21:24.447Z,53.40
2023-01-30T03:23:53.440Z,53.58
2023-01-30T03:26:25.047Z,53.57
2023-01-30T03:28:53.461Z,53.49
2023-01-30T03:31:22.290Z,53.61
2023-01-30T03:33:50.750Z,53.69
2023-01-30T03:36:19.379Z,53.86
2023-01-30T03:38:48.097Z,53.99
2023-01-30T03:41:16.659Z,53.98
2023-01-30T03:43:45.144Z,54.03
2023-01-30T03:46:13.652Z,53.97
2023-01-30T03:48:41.893Z,54.15
2023-01-30T03:51:12.468Z,54.10
2023-01-30T03:53:42.071Z,54.17
2023-01-30T03:56:11.205Z,54.22
2023-01-30T03:58:40.532Z,54.22
2023-01-30T04:01:19.710Z,54.47
2023-01-30T04:03:47.931Z,54.49
2023-01-30T04:06:16.433Z,54.57
2023-01-30T04:08:45.843Z,54.67
2023-01-30T04:11:22.802Z,54.87
2023-01-30T04:13:50.894Z,55.01
2023-01-30T04:16:23.667Z,55.12
2023-01-30T04:19:11.267Z,55.37
2023-01-30T04:21:40.605Z,55.37
2023-01-30T04:24:09.098Z,55.66
2023-01-30T04:26:37.409Z,56.02
2023-01-30T04:29:06.844Z,56.34
2023-01-30T04:31:35.576Z,56.65
2023-01-30T04:34:07.479Z,56.57
2023-01-30T04:36:37.187Z,56.56
2023-01-30T04:39:05.436Z,56.78
2023-01-30T04:41:33.891Z,57.03
2023-01-30T04:44:02.834Z,57.00
2023-01-30T04:46:41.944Z,57.00
2023-01-30T04:49:10.925Z,57.01
2023-01-30T04:51:39.379Z,57.19
2023-01-30T04:54:07.954Z,57.16
2023-01-30T04:56:37.619Z,57.21
2023-01-30T04:59:06.776Z,57.32
2023-01-30T05:01:39.600Z,57.55
2023-01-30T05:04:07.875Z,57.63
2023-01-30T05:06:36.792Z,57.73
2023-01-30T05:09:05.650Z,57.95
2023-01-30T05:11:34.587Z,58.10
2023-01-30T05:14:05.603Z,58.30
2023-01-30T05:16:34.166Z,58.41
2023-01-30T05:19:03.329Z,58.51
2023-01-30T05:21:33.897Z,58.62
2023-01-30T05:24:05.389Z,58.82
2023-01-30T05:26:33.553Z,58.97
2023-01-30T05:29:02.884Z,59.01
2023-01-30T05:31:31.201Z,59.04
2023-01-30T05:34:01.994Z,59.12
2023-01-30T05:36:30.775Z,59.23
2023-01-30T05:38:58.910Z,59.35
2023-01-30T05:41:29.913Z,59.25
2023-01-30T05:44:00.651Z,59.33
2023-01-30T05:46:29.210Z,59.39
2023-01-30T05:49:03.410Z,59.51
2023-01-30T05:51:31.834Z,59.60
2023-01-30T05:54:04.176Z,59.59
2023-01-30T05:56:33.792Z,59.42
2023-01-30T05:59:02.151Z,59.41
2023-01-30T06:01:36.115Z,59.48
2023-01-30T06:04:07.204Z,59.23
2023-01-30T06:06:35.306Z,59.21
2023-01-30T06:09:04.021Z,59.23
2023-01-30T06:11:33.352Z,59.15
2023-01-30T06:14:04.680Z,59.28
2023-01-30T06:16:35.866Z,59.39
2023-01-30T06:19:08.360Z,59.38
2023-01-30T06:21:39.058Z,59.50
2023-01-30T06:24:07.717Z,59.55
2023-01-30T06:26:35.860Z,59.52
2023-01-30T06:29:05.723Z,59.50
2023-01-30T06:31:40.003Z,59.62
2023-01-30T06:34:14.158Z,59.60
2023-01-30T06:36:44.217Z,59.52
2023-01-30T06:39:15.803Z,59.66
2023-01-30T06:41:46.365Z,59.67
2023-01-30T06:44:15.403Z,59.81
2023-01-30T06:46:46.232Z,59.77
2023-01-30T06:49:14.577Z,59.87
2023-01-30T06:51:45.709Z,59.99
2023-01-30T06:54:15.996Z,60.19
2023-01-30T06:56:50.620Z,60.26
2023-01-30T06:59:24.136Z,60.22
2023-01-30T07:01:57.309Z,60.10
2023-01-30T07:04:31.136Z,60.12
2023-01-30T07:07:05.273Z,59.97
2023-01-30T07:09:38.899Z,60.01
2023-01-30T07:12:07.160Z,60.08
2023-01-30T07:14:35.245Z,60.09
2023-01-30T07:17:05.645Z,60.04
2023-01-30T07:19:35.514Z,59.94
2023-01-30T07:22:03.689Z,59.97
2023-01-30T07:24:32.720Z,60.09
2023-01-30T07:27:00.884Z,60.21
2023-01-30T07:29:29.381Z,60.04
2023-01-30T07:32:00.907Z,60.18
2023-01-30T07:34:29.518Z,60.25
2023-01-30T07:36:57.685Z,60.24
2023-01-30T07:39:32.639Z,60.38
2023-01-30T07:42:02.811Z,60.33
2023-01-30T07:44:34.486Z,60.42
2023-01-30T07:47:02.891Z,60.23
2023-01-30T07:49:31.212Z,60.27
2023-01-30T07:51:59.513Z,60.17
2023-01-30T07:54:27.669Z,60.11
2023-01-30T07:56:56.063Z,60.04
2023-01-30T07:59:24.319Z,59.89
2023-01-30T08:01:52.598Z,59.89
2023-01-30T08:04:25.732Z,59.74
2023-01-30T08:06:54.269Z,59.85
2023-01-30T08:09:25.473Z,59.72
2023-01-30T08:11:54.664Z,59.60
2023-01-30T08:14:26.614Z,59.51
2023-01-30T08:16:56.913Z,59.52
2023-01-30T08:19:25.793Z,59.65
2023-01-30T08:21:55.176Z,59.48
2023-01-30T08:24:23.333Z,59.23
2023-01-30T08:26:54.042Z,58.99
2023-01-30T08:29:24.816Z,59.09
2023-01-30T08:31:57.996Z,59.00
2023-01-30T08:34:29.492Z,58.82
2023-01-30T08:37:02.201Z,58.89
2023-01-30T08:39:31.150Z,58.70
2023-01-30T08:42:01.841Z,58.71
2023-01-30T08:44:32.820Z,58.61
2023-01-30T08:47:00.981Z,58.40
2023-01-30T08:49:31.550Z,58.40
2023-01-30T08:52:00.008Z,58.15
2023-01-30T08:54:28.293Z,58.03
2023-01-30T08:56:59.358Z,57.91
2023-01-30T08:59:29.084Z,57.94
2023-01-30T09:02:00.105Z,57.76
2023-01-30T09:04:34.805Z,57.54
2023-01-30T09:07:05.015Z,57.50
2023-01-30T09:09:33.887Z,57.27
2023-01-30T09:12:07.228Z,57.40
2023-01-30T09:14:35.783Z,57.42
2023-01-30T09:17:04.248Z,57.31
2023-01-30T09:19:37.314Z,57.21
2023-01-30T09:22:08.983Z,57.17
2023-01-30T09:24:37.124Z,57.31
2023-01-30T09:27:05.402Z,57.19
2023-01-30T09:29:33.581Z,57.25
2023-01-30T09:32:01.848Z,57.52
2023-01-30T09:34:30.349Z,57.72
2023-01-30T09:37:05.324Z,57.87
2023-01-30T09:39:33.523Z,57.96
2023-01-30T09:42:06.216Z,58.07
2023-01-30T09:44:53.443Z,57.93
2023-01-30T09:47:24.332Z,57.70
2023-01-30T09:50:18.903Z,57.72
2023-01-30T09:53:02.012Z,57.86
2023-01-30T09:55:34.436Z,58.05
2023-01-30T09:58:25.200Z,58.38
2023-01-30T10:04:06.230Z,58.48
2023-01-30T10:06:42.928Z,58.37
2023-01-30T10:12:44.210Z,58.50
2023-01-30T10:15:45.856Z,58.60
2023-01-30T10:18:40.377Z,58.62
2023-01-30T10:21:22.814Z,58.54
2023-01-30T10:24:03.994Z,58.62
2023-01-30T10:26:34.241Z,58.87
2023-01-30T10:29:10.645Z,58.94
2023-01-30T10:34:50.905Z,58.85
2023-01-30T10:37:23.261Z,58.73
2023-01-30T10:40:15.016Z,58.67
2023-01-30T10:42:59.802Z,58.79
2023-01-30T10:46:00.435Z,58.37
2023-01-30T10:48:46.017Z,58.63
2023-01-30T10:51:47.921Z,58.52
2023-01-30T10:54:39.138Z,58.49
2023-01-30T10:57:32.429Z,58.71
2023-01-30T11:03:28.650Z,58.33
2023-01-30T11:06:01.484Z,58.35
2023-01-30T11:08:32.092Z,58.33
2023-01-30T11:11:00.993Z,58.23
2023-01-30T11:13:33.591Z,58.10
2023-01-30T11:16:06.709Z,58.03
2023-01-30T11:21:43.859Z,58.07
2023-01-30T11:24:19.671Z,58.08
2023-01-30T11:26:53.510Z,58.04
2023-01-30T11:29:31.488Z,58.12
2023-01-30T11:32:06.029Z,58.13
2023-01-30T11:34:34.334Z,58.02
2023-01-30T11:37:37.465Z,57.98
2023-01-30T11:40:19.025Z,57.68
2023-01-30T11:42:53.123Z,57.70
2023-01-30T11:45:21.292Z,57.72
2023-01-30T11:48:04.840Z,57.69
2023-01-30T11:53:35.988Z,57.58
2023-01-30T11:56:16.149Z,57.67
2023-01-30T12:01:34.543Z,57.59
2023-01-30T12:04:12.146Z,57.76
2023-01-30T12:09:36.070Z,58.06
2023-01-30T12:12:28.581Z,58.22
2023-01-30T12:15:20.924Z,58.66
2023-01-30T12:21:00.907Z,60.01
2023-01-30T12:23:41.166Z,60.41
2023-01-30T12:26:18.950Z,60.72
2023-01-30T12:29:02.614Z,60.63
2023-01-30T12:31:36.035Z,60.15
2023-01-30T12:34:04.348Z,59.80
2023-01-30T12:36:59.602Z,59.76
2023-01-30T12:39:33.591Z,59.83
2023-01-30T12:42:11.779Z,59.73
2023-01-30T12:44:56.654Z,59.64
2023-01-30T12:47:35.115Z,59.63
2023-01-30T12:50:37.197Z,59.62
2023-01-30T12:53:20.534Z,59.61
2023-01-30T12:56:05.397Z,59.65
2023-01-30T12:58:38.483Z,59.58
2023-01-30T13:01:48.308Z,59.69
2023-01-30T13:04:35.789Z,59.61
2023-01-30T13:07:16.751Z,59.63
2023-01-30T13:09:57.629Z,59.67
2023-01-30T13:12:33.084Z,59.69
2023-01-30T13:15:11.593Z,59.70
2023-01-30T13:18:17.289Z,59.70
2023-01-30T13:21:00.509Z,59.66
2023-01-30T13:23:56.514Z,59.76
2023-01-30T13:26:27.271Z,59.80
2023-01-30T13:29:00.410Z,59.87
2023-01-30T13:31:30.695Z,59.95
2023-01-30T13:34:31.763Z,59.84
2023-01-30T13:37:13.543Z,59.71
2023-01-30T13:40:17.513Z,59.46
2023-01-30T13:42:53.814Z,59.46
2023-01-30T13:45:25.282Z,59.41
2023-01-30T13:47:56.811Z,59.36
2023-01-30T13:50:47.318Z,59.27
2023-01-30T13:53:26.023Z,59.49
2023-01-30T13:56:27.184Z,59.63
2023-01-30T13:59:30.827Z,59.62
2023-01-30T14:02:09.551Z,59.73
2023-01-30T14:04:40.960Z,59.89
2023-01-30T14:07:12.103Z,59.99
2023-01-30T14:09:44.897Z,59.94
2023-01-30T14:12:26.136Z,60.04
2023-01-30T14:15:06.502Z,60.03
2023-01-30T14:17:35.272Z,60.04
2023-01-30T14:20:17.660Z,60.07
2023-01-30T14:22:56.043Z,60.19
2023-01-30T14:25:30.714Z,60.32
2023-01-30T14:28:02.001Z,60.46
2023-01-30T14:30:47.931Z,60.55
2023-01-30T14:33:19.406Z,60.60
2023-01-30T14:35:48.745Z,60.61
2023-01-30T14:38:20.151Z,60.75
2023-01-30T14:41:09.688Z,60.79
2023-01-30T14:43:42.967Z,60.80
2023-01-30T14:46:22.128Z,60.88
2023-01-30T14:49:05.326Z,60.98
2023-01-30T14:51:39.745Z,61.08
2023-01-30T14:54:23.455Z,61.11
2023-01-30T14:57:01.238Z,61.08
2023-01-30T14:59:36.360Z,61.05
2023-01-30T15:02:12.327Z,61.21
2023-01-30T15:04:56.358Z,61.38
2023-01-30T15:08:05.363Z,61.41
2023-01-30T15:10:55.995Z,61.26
2023-01-30T15:13:52.638Z,61.34
2023-01-30T15:16:53.273Z,61.34
2023-01-30T15:19:32.514Z,61.44
2023-01-30T15:22:24.031Z,61.48
2023-01-30T15:25:21.234Z,61.61
2023-01-30T15:28:01.611Z,61.64
2023-01-30T15:30:57.397Z,61.67
2023-01-30T15:33:32.083Z,61.80
2023-01-30T15:36:01.810Z,61.94
2023-01-30T15:38:32.163Z,61.99
2023-01-30T15:41:07.014Z,61.93
2023-01-30T15:43:48.386Z,61.90
2023-01-30T15:46:19.544Z,61.84
2023-01-30T15:48:54.736Z,61.77
2023-01-30T15:51:27.400Z,61.60
2023-01-30T15:53:56.256Z,61.62
2023-01-30T15:56:26.747Z,61.51
2023-01-30T15:58:54.825Z,61.60
2023-01-30T16:01:23.070Z,61.62
2023-01-30T16:03:53.367Z,61.55
2023-01-30T16:06:35.193Z,61.46
2023-01-30T16:09:08.306Z,61.48
2023-01-30T16:11:43.194Z,61.45
2023-01-30T16:14:17.958Z,61.38
2023-01-30T16:16:49.367Z,61.28
2023-01-30T16:19:26.566Z,61.31
2023-01-30T16:21:58.246Z,61.28
2023-01-30T16:24:32.217Z,61.31
2023-01-30T16:27:03.675Z,61.31
2023-01-30T16:29:36.929Z,61.34
2023-01-30T16:32:17.629Z,61.16
2023-01-30T16:34:47.970Z,61.24
2023-01-30T16:37:20.628Z,61.27
2023-01-30T16:40:14.001Z,61.34
2023-01-30T16:42:42.409Z,61.33
2023-01-30T16:45:37.995Z,61.37
2023-01-30T16:48:24.653Z,61.43
2023-01-30T16:50:58.930Z,61.63
2023-01-30T16:53:30.737Z,61.69
2023-01-30T16:56:15.253Z,61.59
2023-01-30T16:58:50.154Z,61.62
2023-01-30T17:01:18.596Z,61.74
2023-01-30T17:03:52.294Z,61.79
2023-01-30T17:06:34.361Z,61.77
2023-01-30T17:09:05.091Z,61.89
2023-01-30T17:11:41.256Z,61.76
2023-01-30T17:14:26.137Z,61.72
2023-01-30T17:17:10.724Z,61.60
2023-01-30T17:19:39.075Z,61.74
2023-01-30T17:22:19.311Z,61.69
2023-01-30T17:24:47.443Z,61.69
2023-01-30T17:27:15.502Z,61.81
2023-01-30T17:29:45.745Z,61.61
2023-01-30T17:32:14.225Z,61.64
2023-01-30T17:34:43.880Z,61.66
2023-01-30T17:37:16.729Z,61.72
2023-01-30T17:39:44.776Z,61.60
2023-01-30T17:42:13.984Z,61.55
2023-01-30T17:44:42.428Z,61.56
2023-01-30T17:47:11.618Z,61.61
2023-01-30T17:49:40.028Z,61.70
2023-01-30T17:52:08.398Z,61.78
2023-01-30T17:54:36.456Z,61.88
2023-01-30T17:57:05.908Z,61.83
2023-01-30T17:59:34.678Z,61.87
2023-01-30T18:02:03.014Z,61.87
2023-01-30T18:04:31.156Z,61.86
2023-01-30T18:07:03.731Z,61.74
2023-01-30T18:09:32.101Z,61.72
2023-01-30T18:12:00.511Z,61.58
2023-01-30T18:14:28.975Z,61.35
2023-01-30T18:17:00.302Z,61.50
2023-01-30T18:19:29.803Z,61.48
2023-01-30T18:21:58.573Z,61.48
2023-01-30T18:24:26.827Z,61.57
2023-01-30T18:26:55.970Z,61.55
2023-01-30T18:29:24.097Z,61.53
2023-01-30T18:31:52.711Z,61.54
2023-01-30T18:34:21.178Z,61.61
2023-01-30T18:36:49.202Z,61.60
2023-01-30T18:39:20.339Z,61.52
2023-01-30T18:41:48.415Z,61.49
2023-01-30T18:44:16.571Z,61.37
2023-01-30T18:46:45.124Z,61.51
2023-01-30T18:49:13.834Z,61.72
2023-01-30T18:51:45.735Z,61.79
2023-01-30T18:54:20.932Z,61.83
2023-01-30T18:56:52.281Z,61.84
2023-01-30T18:59:20.483Z,61.76
2023-01-30T19:01:48.799Z,61.95
2023-01-30T19:04:17.905Z,62.21
2023-01-30T19:06:46.073Z,62.30
2023-01-30T19:09:15.308Z,62.48
2023-01-30T19:12:02.240Z,62.60
2023-01-30T19:14:30.481Z,62.92
2023-01-30T19:16:58.748Z,63.61
2023-01-30T19:19:27.392Z,64.01
2023-01-30T19:21:55.535Z,64.53
2023-01-30T19:24:25.090Z,64.86
2023-01-30T19:26:53.408Z,65.42
2023-01-30T19:29:23.292Z,65.83
2023-01-30T19:31:52.032Z,66.54
2023-01-30T19:34:21.169Z,67.31
2023-01-30T19:36:49.383Z,68.26
2023-01-30T19:39:17.824Z,68.91
2023-01-30T19:41:50.171Z,69.24
2023-01-30T19:44:21.110Z,69.30
2023-01-30T19:46:50.711Z,69.50
2023-01-30T19:49:19.032Z,69.69
2023-01-30T19:51:47.224Z,70.21
2023-01-30T19:54:16.255Z,70.32
2023-01-30T19:56:48.489Z,70.74
2023-01-30T19:59:16.841Z,71.18
2023-01-30T20:01:50.154Z,71.17
2023-01-30T20:04:18.454Z,71.25
2023-01-30T20:06:49.769Z,71.07
2023-01-30T20:09:19.350Z,70.99
2023-01-30T20:11:47.734Z,71.17
2023-01-30T20:14:18.817Z,71.66
2023-01-30T20:16:47.534Z,71.79
2023-01-30T20:19:16.782Z,72.60
2023-01-30T20:21:45.600Z,73.70
2023-01-30T20:24:17.475Z,74.11
2023-01-30T20:26:48.357Z,74.55
2023-01-30T20:29:18.106Z,75.22
2023-01-30T20:31:49.948Z,75.48
2023-01-30T20:34:19.030Z,75.87
2023-01-30T20:36:47.666Z,76.29
2023-01-30T20:39:17.321Z,77.12
2023-01-30T20:41:46.060Z,77.59
2023-01-30T20:44:14.700Z,77.87
2023-01-30T20:46:44.950Z,78.38
2023-01-30T20:49:15.066Z,78.99
2023-01-30T20:51:46.474Z,79.30
2023-01-30T20:54:14.867Z,78.90
2023-01-30T20:56:44.744Z,79.20
2023-01-30T20:59:15.240Z,79.80
2023-01-30T21:01:45.721Z,80.18
2023-01-30T21:04:15.227Z,80.32
2023-01-30T21:06:45.686Z,80.22
2023-01-30T21:09:20.540Z,80.59
2023-01-30T21:11:48.994Z,80.74
2023-01-30T21:14:18.192Z,81.18
2023-01-30T21:16:46.667Z,81.40
2023-01-30T21:19:16.556Z,81.44
2023-01-30T21:21:51.002Z,81.68
2023-01-30T21:24:24.658Z,81.99
2023-01-30T21:26:53.282Z,82.02
2023-01-30T21:29:23.319Z,82.16
2023-01-30T21:31:52.196Z,82.25
2023-01-30T21:34:20.471Z,82.46
2023-01-30T21:37:08.774Z,82.54
2023-01-30T21:39:56.809Z,82.72
2023-01-30T21:42:43.631Z,82.89
2023-01-30T21:45:11.760Z,82.86
2023-01-30T21:47:40.338Z,82.89
2023-01-30T21:50:12.065Z,82.93
2023-01-30T21:52:40.420Z,82.96
2023-01-30T21:55:09.631Z,82.99
2023-01-30T21:57:38.039Z,82.98
2023-01-30T22:00:06.680Z,82.69
2023-01-30T22:02:35.258Z,83.39
2023-01-30T22:05:03.859Z,83.73
2023-01-30T22:07:32.871Z,83.76
2023-01-30T22:10:03.980Z,83.97
2023-01-30T22:12:32.814Z,84.12
2023-01-30T22:15:01.595Z,84.04
2023-01-30T22:17:30.083Z,84.13
2023-01-30T22:19:58.377Z,84.26
2023-01-30T22:22:26.528Z,84.15
2023-01-30T22:24:54.870Z,84.33
2023-01-30T22:27:23.236Z,84.41
2023-01-30T22:29:51.954Z,84.28
2023-01-30T22:32:23.182Z,84.44
2023-01-30T22:34:51.909Z,84.48
2023-01-30T22:37:20.047Z,84.43
2023-01-30T22:39:48.061Z,84.56
2023-01-30T22:42:16.760Z,84.53
2023-01-30T22:44:44.868Z,84.31
2023-01-30T22:47:13.012Z,84.51
2023-01-30T22:49:45.258Z,84.52
2023-01-30T22:52:13.321Z,84.52
2023-01-30T22:54:41.665Z,84.36
2023-01-30T22:57:10.113Z,84.27
2023-01-30T22:59:38.295Z,84.28
2023-01-30T23:02:10.385Z,84.26
2023-01-30T23:04:39.109Z,84.45
2023-01-30T23:07:07.551Z,84.68
2023-01-30T23:09:36.735Z,84.82
2023-01-30T23:12:24.696Z,84.74
2023-01-30T23:14:53.269Z,85.02
2023-01-30T23:17:40.282Z,85.10
2023-01-30T23:20:09.706Z,84.92
2023-01-30T23:22:37.960Z,84.94
2023-01-30T23:25:06.784Z,84.90
2023-01-30T23:27:35.524Z,84.86
2023-01-30T23:30:04.676Z,84.98
2023-01-30T23:32:32.938Z,85.09
2023-01-30T23:35:01.871Z,85.16
2023-01-30T23:37:50.522Z,85.18
2023-01-30T23:40:18.684Z,85.28
2023-01-30T23:42:47.280Z,85.05
2023-01-30T23:45:15.454Z,85.21
2023-01-30T23:47:43.734Z,85.41
2023-01-30T23:50:11.795Z,85.49
2023-01-30T23:52:40.069Z,85.43
2023-01-30T23:55:09.297Z,85.41
2023-01-30T23:57:38.602Z,85.37
